Time;durP1;ratioP1;P1;durP2;ratioP2;P2;SDS_P1;SDS_P2;PMS_P1;PMS_P2;Temp;Humidity;BMP_temperature;BMP_pressure;BME280_temperature;BME280_humidity;BME280_pressure;Samples;Min_cycle;Max_cycle;Signal;HPM_P1;HPM_P2
2022/01/11 00:01:31;;;;;;;90.68;22.58;;;2.20;92.60;;;;;;5031612;28;20032;-70
2022/01/11 00:03:57;;;;;;;90.85;23.67;;;2.20;92.30;;;;;;5031746;28;20017;-70
2022/01/11 00:06:31;;;;;;;116.00;24.10;;;2.10;92.40;;;;;;5031520;28;20112;-70
2022/01/11 00:09:07;;;;;;;236.10;28.65;;;2.10;92.50;;;;;;5031648;28;20662;-70
2022/01/11 00:11:32;;;;;;;169.10;27.63;;;2.10;92.40;;;;;;5032278;28;20025;-69
2022/01/11 00:13:58;;;;;;;104.88;22.95;;;2.10;92.30;;;;;;5031823;28;20033;-70
2022/01/11 00:16:23;;;;;;;151.15;25.00;;;2.10;92.40;;;;;;5031290;28;20824;-70
2022/01/11 00:18:49;;;;;;;90.22;23.33;;;2.10;92.40;;;;;;5031276;28;20033;-70
2022/01/11 00:21:15;;;;;;;109.97;27.75;;;2.10;92.40;;;;;;5031474;28;20025;-70
2022/01/11 00:26:06;;;;;;;137.63;25.00;;;2.00;92.50;;;;;;5032060;28;20446;-70
2022/01/11 00:28:32;;;;;;;163.18;26.98;;;2.00;92.50;;;;;;5031755;28;20025;-70
2022/01/11 00:30:58;;;;;;;108.43;23.85;;;2.00;92.50;;;;;;5030981;28;20096;-68
2022/01/11 00:33:39;;;;;;;130.57;24.83;;;2.00;92.50;;;;;;5030657;28;20808;-69
2022/01/11 00:36:07;;;;;;;91.63;25.55;;;2.00;92.50;;;;;;5030970;28;20033;-69
2022/01/11 00:38:36;;;;;;;199.27;29.33;;;2.00;92.50;;;;;;5031400;28;20025;-69
2022/01/11 00:41:05;;;;;;;167.00;27.98;;;1.90;92.50;;;;;;5030773;28;20033;-69
2022/01/11 00:43:34;;;;;;;104.30;24.30;;;1.90;92.60;;;;;;5031173;28;20033;-69
2022/01/11 00:46:00;;;;;;;65.22;20.40;;;1.80;92.80;;;;;;5031198;28;20396;-70
2022/01/11 00:48:27;;;;;;;100.20;25.55;;;1.90;93.80;;;;;;5030761;28;20021;-69
2022/01/11 00:50:53;;;;;;;89.95;24.77;;;1.90;93.10;;;;;;5030695;28;20025;-70
2022/01/11 00:53:18;;;;;;;121.80;27.13;;;1.90;93.20;;;;;;5030903;28;20108;-70
2022/01/11 00:55:47;;;;;;;76.15;24.77;;;1.90;93.20;;;;;;5030252;28;20049;-70
2022/01/11 00:58:14;;;;;;;74.22;21.80;;;1.80;93.10;;;;;;5030932;28;20156;-70
2022/01/11 01:00:39;;;;;;;100.97;26.92;;;1.90;94.40;;;;;;5028662;28;20373;-70
2022/01/11 01:03:06;;;;;;;104.07;26.67;;;1.80;93.30;;;;;;5030426;28;20040;-69
2022/01/11 01:05:32;;;;;;;104.88;26.00;;;1.70;93.40;;;;;;5030903;28;20076;-69
2022/01/11 01:07:57;;;;;;;88.00;23.70;;;1.70;93.50;;;;;;5030408;28;20052;-69
2022/01/11 01:10:29;;;;;;;84.47;24.98;;;1.70;93.70;;;;;;5029864;28;20546;-70
2022/01/11 01:12:58;;;;;;;98.57;24.48;;;1.70;94.00;;;;;;5029397;28;20116;-69
2022/01/11 01:15:25;;;;;;;76.90;24.23;;;1.70;94.00;;;;;;5030401;28;20040;-70
2022/01/11 01:17:52;;;;;;;161.27;30.38;;;1.70;93.80;;;;;;5030464;28;20025;-69
2022/01/11 01:20:17;;;;;;;143.05;27.27;;;1.70;94.00;;;;;;5030226;28;20026;-69
2022/01/11 01:22:43;;;;;;;109.13;24.80;;;1.60;93.80;;;;;;5030035;28;20124;-70
2022/01/11 01:25:10;;;;;;;172.77;27.60;;;1.60;93.90;;;;;;5029834;28;20487;-70
2022/01/11 01:27:35;;;;;;;119.13;24.77;;;1.60;94.60;;;;;;5030015;28;20022;-69
2022/01/11 01:30:03;;;;;;;93.00;23.27;;;1.60;94.30;;;;;;5030159;28;20485;-69
2022/01/11 01:32:29;;;;;;;79.50;22.02;;;1.60;94.10;;;;;;5029800;28;20034;-69
2022/01/11 01:35:01;;;;;;;54.60;22.80;;;1.60;94.20;;;;;;5030018;28;20126;-69
2022/01/11 01:37:26;;;;;;;89.50;21.20;;;1.70;94.20;;;;;;5029736;28;20052;-69
2022/01/11 01:39:52;;;;;;;143.15;26.40;;;1.70;94.10;;;;;;5030100;28;20064;-70
2022/01/11 01:42:23;;;;;;;94.90;22.65;;;1.70;94.30;;;;;;5029564;28;20100;-69
2022/01/11 01:44:50;;;;;;;85.60;22.60;;;1.60;93.80;;;;;;5030313;28;20033;-70
2022/01/11 01:47:16;;;;;;;99.57;23.13;;;1.50;93.80;;;;;;5029560;28;20026;-70
2022/01/11 01:49:41;;;;;;;128.07;24.23;;;1.60;95.60;;;;;;5029835;28;20071;-70
2022/01/11 01:52:07;;;;;;;158.32;27.13;;;1.70;95.50;;;;;;5029389;28;20073;-70
2022/01/11 01:54:33;;;;;;;102.90;23.15;;;1.60;94.50;;;;;;5029915;28;20041;-69
2022/01/11 01:56:59;;;;;;;106.20;22.88;;;1.60;94.60;;;;;;5028655;28;20899;-70
2022/01/11 01:59:25;;;;;;;81.07;23.08;;;1.60;94.70;;;;;;5030033;28;20065;-70
2022/01/11 02:01:50;;;;;;;69.18;21.10;;;1.60;94.70;;;;;;5029391;28;20058;-70
2022/01/11 02:04:18;;;;;;;150.23;25.58;;;1.60;94.20;;;;;;5029540;28;20033;-70
2022/01/11 02:06:45;;;;;;;84.45;25.77;;;1.60;94.20;;;;;;5028850;28;20410;-70
2022/01/11 02:09:15;;;;;;;90.90;23.88;;;1.70;94.20;;;;;;5029437;28;20029;-70
2022/01/11 02:11:41;;;;;;;137.13;27.08;;;1.70;94.20;;;;;;5029822;28;20095;-70
2022/01/11 02:14:07;;;;;;;100.57;25.17;;;1.70;94.10;;;;;;5029835;28;20481;-70
2022/01/11 02:16:32;;;;;;;142.85;26.23;;;1.80;94.00;;;;;;5029653;28;20029;-69
2022/01/11 02:18:58;;;;;;;119.45;25.25;;;1.80;94.00;;;;;;5029662;28;20748;-70
2022/01/11 02:21:25;;;;;;;139.55;27.50;;;1.80;94.20;;;;;;5028694;28;20773;-69
2022/01/11 02:23:52;;;;;;;134.55;26.33;;;1.80;93.70;;;;;;5029494;28;20033;-69
2022/01/11 02:26:17;;;;;;;82.90;23.38;;;1.70;93.70;;;;;;5029404;28;20028;-69
2022/01/11 02:28:44;;;;;;;187.10;29.65;;;1.70;93.70;;;;;;5027214;28;20021;-69
2022/01/11 02:31:12;;;;;;;88.53;21.55;;;1.70;93.70;;;;;;5028506;28;20083;-69
2022/01/11 02:33:50;;;;;;;75.35;23.08;;;1.70;94.50;;;;;;5028778;28;20464;-70
2022/01/11 02:36:18;;;;;;;81.85;22.58;;;1.70;93.90;;;;;;5029252;28;20056;-69
2022/01/11 02:38:49;;;;;;;102.40;27.27;;;1.60;94.10;;;;;;5028436;28;20783;-70
2022/01/11 02:41:15;;;;;;;99.60;25.63;;;1.60;93.90;;;;;;5009350;28;20504;-69
2022/01/11 02:43:43;;;;;;;89.47;26.02;;;1.60;93.90;;;;;;5022828;28;20142;-69
2022/01/11 02:46:09;;;;;;;69.75;22.23;;;1.60;94.20;;;;;;5027944;28;20029;-69
2022/01/11 02:48:35;;;;;;;68.13;24.13;;;1.60;94.90;;;;;;5028213;28;20057;-70
2022/01/11 02:51:00;;;;;;;51.00;19.52;;;1.60;94.10;;;;;;5028206;28;20063;-70
2022/01/11 02:53:26;;;;;;;133.65;26.85;;;1.60;94.60;;;;;;5027965;28;20029;-69
2022/01/11 02:55:52;;;;;;;60.92;23.00;;;1.70;94.40;;;;;;5028260;28;20449;-70
2022/01/11 02:58:18;;;;;;;66.13;22.67;;;1.60;94.30;;;;;;5028497;28;20472;-70
2022/01/11 03:00:44;;;;;;;116.70;29.13;;;1.60;94.20;;;;;;5028277;28;20104;-70
2022/01/11 03:03:14;;;;;;;73.38;25.30;;;1.60;94.20;;;;;;5028359;28;20510;-70
2022/01/11 03:05:48;;;;;;;100.57;26.20;;;1.70;94.40;;;;;;5027875;28;20029;-70
2022/01/11 03:08:15;;;;;;;96.10;26.08;;;1.60;94.40;;;;;;5027349;28;20021;-70
2022/01/11 03:10:41;;;;;;;61.53;20.98;;;1.60;95.10;;;;;;5027654;28;20029;-70
2022/01/11 03:13:09;;;;;;;124.80;26.83;;;1.60;95.00;;;;;;5027970;28;20032;-70
2022/01/11 03:15:36;;;;;;;73.22;26.45;;;1.60;94.40;;;;;;5027901;28;20061;-69
2022/01/11 03:18:04;;;;;;;56.83;26.83;;;1.60;94.20;;;;;;5028090;28;20028;-69
2022/01/11 03:20:30;;;;;;;85.38;27.42;;;1.50;94.30;;;;;;5028029;28;20030;-69
2022/01/11 03:22:56;;;;;;;95.32;27.40;;;1.40;94.40;;;;;;5027940;28;20030;-69
2022/01/11 03:25:23;;;;;;;50.15;22.08;;;1.50;94.80;;;;;;5028121;28;20029;-69
2022/01/11 03:27:49;;;;;;;59.85;23.92;;;1.50;95.00;;;;;;5027685;28;20147;-69
2022/01/11 03:30:14;;;;;;;73.65;25.85;;;1.50;94.70;;;;;;5027812;28;20041;-70
2022/01/11 03:32:41;;;;;;;76.05;27.13;;;1.50;94.60;;;;;;5027811;28;20022;-70
2022/01/11 03:35:08;;;;;;;116.65;28.23;;;1.40;94.70;;;;;;5027384;28;20038;-69
2022/01/11 03:37:34;;;;;;;145.52;28.25;;;1.40;94.80;;;;;;5028010;28;20602;-69
2022/01/11 03:39:59;;;;;;;75.70;27.67;;;1.50;95.70;;;;;;5026965;28;20041;-69
2022/01/11 03:42:25;;;;;;;48.90;22.88;;;1.50;95.20;;;;;;5027870;28;20034;-70
2022/01/11 03:44:52;;;;;;;71.65;28.27;;;1.50;96.00;;;;;;5027833;28;20022;-70
2022/01/11 03:47:18;;;;;;;57.97;27.35;;;1.60;95.00;;;;;;5028171;28;20384;-70
2022/01/11 03:49:44;;;;;;;63.38;24.98;;;1.60;94.80;;;;;;5025247;28;20096;-69
2022/01/11 03:52:09;;;;;;;83.45;27.35;;;1.60;94.80;;;;;;5026790;28;20080;-70
2022/01/11 03:55:02;;;;;;;66.78;28.10;;;1.60;95.50;;;;;;5027096;28;20033;-70
2022/01/11 03:57:29;;;;;;;55.08;26.63;;;1.60;94.80;;;;;;5016252;28;20029;-69
2022/01/11 03:59:56;;;;;;;78.65;25.33;;;1.60;94.80;;;;;;5027085;28;20025;-69
2022/01/11 04:02:22;;;;;;;48.50;23.48;;;1.70;95.50;;;;;;5026957;28;20092;-69
2022/01/11 04:04:52;;;;;;;52.65;21.52;;;1.70;95.40;;;;;;5026771;28;20030;-70
2022/01/11 04:07:26;;;;;;;60.28;27.00;;;1.70;95.70;;;;;;5027258;28;20017;-69
2022/01/11 04:09:52;;;;;;;63.20;25.85;;;1.70;95.10;;;;;;5026808;28;20026;-69
2022/01/11 04:12:18;;;;;;;55.40;27.23;;;1.60;94.80;;;;;;5026606;28;20148;-69
2022/01/11 04:14:45;;;;;;;56.85;26.35;;;1.60;94.80;;;;;;5026686;28;20159;-69
2022/01/11 04:17:10;;;;;;;60.90;24.75;;;1.60;95.30;;;;;;5026717;28;20448;-70
2022/01/11 04:19:36;;;;;;;54.17;25.52;;;1.60;95.30;;;;;;5027654;28;20017;-69
2022/01/11 04:22:03;;;;;;;53.88;26.52;;;1.60;95.10;;;;;;5030531;28;20025;-70
2022/01/11 04:24:28;;;;;;;60.97;28.13;;;1.60;95.50;;;;;;5030402;28;20021;-70
2022/01/11 04:26:54;;;;;;;62.28;28.70;;;1.60;94.80;;;;;;5030401;28;20021;-68
2022/01/11 04:29:20;;;;;;;59.28;26.10;;;1.50;94.70;;;;;;5029870;28;20037;-69
2022/01/11 04:31:46;;;;;;;58.20;27.92;;;1.50;94.80;;;;;;5030254;28;20025;-69
2022/01/11 04:34:11;;;;;;;50.13;24.85;;;1.50;95.20;;;;;;5030329;28;20033;-69
2022/01/11 04:36:37;;;;;;;59.92;28.55;;;1.50;95.50;;;;;;5030251;28;20020;-70
2022/01/11 04:39:05;;;;;;;60.55;29.52;;;1.60;95.50;;;;;;5029719;28;20022;-70
2022/01/11 04:41:31;;;;;;;46.72;22.95;;;1.60;95.40;;;;;;5030356;28;20422;-70
2022/01/11 04:43:56;;;;;;;55.03;28.67;;;1.60;96.10;;;;;;5028777;28;20025;-70
2022/01/11 04:46:22;;;;;;;52.42;26.23;;;1.60;95.10;;;;;;5029668;28;20026;-70
2022/01/11 04:48:48;;;;;;;56.53;28.50;;;1.60;95.30;;;;;;5029812;28;20101;-70
2022/01/11 04:51:15;;;;;;;56.03;29.17;;;1.60;95.70;;;;;;5029920;28;20525;-70
2022/01/11 04:53:41;;;;;;;51.50;26.65;;;1.60;95.20;;;;;;5029714;28;20032;-70
2022/01/11 04:56:07;;;;;;;54.08;27.65;;;1.70;95.40;;;;;;5029842;28;20045;-70
2022/01/11 04:58:32;;;;;;;39.28;19.27;;;1.70;95.70;;;;;;5030231;28;20554;-70
2022/01/11 05:00:58;;;;;;;46.90;23.88;;;1.80;96.40;;;;;;5029767;28;20024;-69
2022/01/11 05:03:24;;;;;;;52.20;27.50;;;1.90;96.70;;;;;;5029443;28;20036;-69
2022/01/11 05:05:49;;;;;;;50.90;26.63;;;1.90;95.70;;;;;;5029457;28;20036;-69
2022/01/11 05:08:15;;;;;;;56.50;28.90;;;1.80;95.30;;;;;;5029542;28;20021;-69
2022/01/11 05:10:44;;;;;;;44.42;24.13;;;1.70;95.30;;;;;;5030294;28;20030;-70
2022/01/11 05:13:11;;;;;;;53.15;27.67;;;1.80;96.50;;;;;;5029934;28;20091;-70
2022/01/11 05:15:37;;;;;;;56.40;27.02;;;1.80;96.00;;;;;;5029462;28;20503;-70
2022/01/11 05:18:03;;;;;;;54.90;26.58;;;1.70;95.30;;;;;;5029190;28;20032;-70
2022/01/11 05:20:28;;;;;;;52.00;25.50;;;1.70;95.20;;;;;;5029636;28;20026;-70
2022/01/11 05:22:54;;;;;;;52.35;25.20;;;1.70;95.90;;;;;;5029858;28;20097;-70
2022/01/11 05:25:20;;;;;;;50.08;24.65;;;1.80;95.90;;;;;;5029308;28;20048;-70
2022/01/11 05:27:47;;;;;;;47.65;25.58;;;1.80;95.30;;;;;;5028999;28;20151;-70
2022/01/11 05:30:13;;;;;;;53.88;26.38;;;1.80;96.20;;;;;;5028104;28;20029;-70
2022/01/11 05:32:42;;;;;;;46.08;23.33;;;1.80;95.40;;;;;;5028607;28;20308;-69
2022/01/11 05:35:09;;;;;;;51.40;24.27;;;1.80;96.10;;;;;;5029356;28;20044;-70
2022/01/11 05:37:35;;;;;;;51.80;27.15;;;1.80;95.30;;;;;;5029610;28;20030;-70
2022/01/11 05:40:01;;;;;;;46.97;26.35;;;1.80;95.80;;;;;;5028802;28;20087;-69
2022/01/11 05:42:27;;;;;;;47.95;26.15;;;1.90;95.20;;;;;;5029246;28;20034;-70
2022/01/11 05:44:53;;;;;;;47.28;25.80;;;1.80;95.20;;;;;;5029042;28;20048;-69
2022/01/11 05:47:19;;;;;;;46.90;24.88;;;1.90;95.20;;;;;;5029168;28;20076;-70
2022/01/11 05:49:45;;;;;;;51.03;26.35;;;1.80;94.70;;;;;;5028743;28;20025;-69
2022/01/11 05:52:11;;;;;;;51.10;25.40;;;1.80;94.70;;;;;;5028518;28;20474;-69
2022/01/11 05:54:37;;;;;;;49.22;25.73;;;1.70;94.70;;;;;;5027266;28;20105;-70
2022/01/11 05:57:02;;;;;;;46.00;24.67;;;1.80;94.70;;;;;;5028971;28;20364;-70
2022/01/11 05:59:28;;;;;;;44.10;23.80;;;1.70;94.60;;;;;;5028583;28;20021;-70
2022/01/11 06:01:54;;;;;;;48.90;25.55;;;1.80;95.20;;;;;;5028622;28;20032;-69
2022/01/11 06:04:19;;;;;;;45.17;23.90;;;1.90;95.50;;;;;;5028424;28;20044;-70
2022/01/11 06:06:45;;;;;;;51.08;26.05;;;1.90;94.90;;;;;;5028566;28;20032;-69
2022/01/11 06:09:11;;;;;;;47.00;25.33;;;1.90;94.60;;;;;;5027810;28;20093;-71
2022/01/11 06:11:36;;;;;;;42.72;23.17;;;2.00;95.30;;;;;;5022820;28;20099;-69
2022/01/11 06:14:02;;;;;;;48.70;26.70;;;1.90;94.70;;;;;;5016747;28;20030;-70
2022/01/11 06:16:28;;;;;;;51.60;24.55;;;1.80;94.60;;;;;;5028441;28;20526;-69
2022/01/11 06:18:54;;;;;;;45.95;23.80;;;1.80;94.70;;;;;;5017012;28;20026;-69
2022/01/11 06:21:19;;;;;;;44.65;23.17;;;1.90;94.60;;;;;;5020155;28;20535;-70
2022/01/11 06:23:46;;;;;;;45.63;23.85;;;1.90;95.00;;;;;;5017718;28;20022;-70
2022/01/11 06:26:13;;;;;;;46.22;25.80;;;1.80;94.40;;;;;;5020076;28;20025;-70
2022/01/11 06:28:39;;;;;;;44.28;23.67;;;1.80;94.30;;;;;;5025508;28;20029;-71
2022/01/11 06:31:05;;;;;;;49.08;25.33;;;1.80;94.40;;;;;;5021703;28;20029;-70
2022/01/11 06:33:32;;;;;;;46.70;25.13;;;1.80;94.40;;;;;;5024699;28;20025;-69
2022/01/11 06:35:57;;;;;;;46.35;24.58;;;1.90;94.70;;;;;;5019140;28;20057;-70
2022/01/11 06:38:23;;;;;;;49.03;23.90;;;1.90;94.30;;;;;;5019016;28;20026;-70
2022/01/11 06:40:48;;;;;;;53.85;27.23;;;1.90;94.20;;;;;;5019522;28;20033;-69
2022/01/11 06:43:14;;;;;;;52.92;27.13;;;1.90;94.10;;;;;;5019390;28;20077;-70
2022/01/11 06:45:40;;;;;;;45.55;24.08;;;2.00;94.20;;;;;;5023896;28;20065;-70
2022/01/11 06:48:06;;;;;;;47.67;23.48;;;2.00;94.00;;;;;;5021345;28;20021;-70
2022/01/11 06:50:32;;;;;;;44.45;22.92;;;2.00;93.90;;;;;;5019887;28;20017;-70
2022/01/11 06:52:58;;;;;;;47.35;24.50;;;2.00;93.90;;;;;;5025789;28;20102;-69
2022/01/11 06:55:24;;;;;;;50.15;26.15;;;1.90;93.80;;;;;;5019555;28;20049;-69
2022/01/11 06:57:50;;;;;;;54.38;25.98;;;1.90;93.90;;;;;;5026710;28;20095;-69
2022/01/11 07:00:17;;;;;;;54.38;24.75;;;1.90;94.30;;;;;;5031990;28;20737;-69
2022/01/11 07:02:44;;;;;;;53.42;27.77;;;1.90;94.00;;;;;;5019908;28;20215;-68
2022/01/11 07:05:10;;;;;;;47.13;23.88;;;1.80;93.90;;;;;;5023053;28;20453;-70
2022/01/11 07:07:36;;;;;;;54.63;27.83;;;1.90;95.30;;;;;;5024639;28;20022;-70
2022/01/11 07:10:03;;;;;;;51.13;28.15;;;1.90;95.10;;;;;;5023692;28;20383;-69
2022/01/11 07:12:28;;;;;;;55.33;25.75;;;1.80;94.50;;;;;;5020690;28;20014;-69
2022/01/11 07:14:54;;;;;;;43.33;21.67;;;1.80;94.90;;;;;;5019968;28;20033;-70
2022/01/11 07:17:21;;;;;;;57.20;29.55;;;1.80;95.60;;;;;;5020004;28;20074;-69
2022/01/11 07:19:47;;;;;;;54.83;27.90;;;1.80;94.50;;;;;;5024149;28;20044;-70
2022/01/11 07:22:12;;;;;;;52.05;28.10;;;1.70;94.80;;;;;;5026277;28;20476;-70
2022/01/11 07:24:38;;;;;;;53.35;28.42;;;1.80;94.70;;;;;;5018671;28;20056;-69
2022/01/11 07:27:05;;;;;;;52.85;27.50;;;1.70;94.40;;;;;;5018539;28;20083;-70
2022/01/11 07:29:30;;;;;;;61.35;30.42;;;1.80;94.90;;;;;;5022117;28;20025;-70
2022/01/11 07:31:56;;;;;;;69.40;32.85;;;1.80;94.90;;;;;;5024385;28;20036;-69
2022/01/11 07:34:22;;;;;;;62.85;30.77;;;1.80;94.70;;;;;;5021670;28;20463;-70
2022/01/11 07:36:47;;;;;;;63.92;30.45;;;1.80;94.70;;;;;;5028679;28;20036;-70
2022/01/11 07:39:13;;;;;;;65.13;31.98;;;1.70;94.30;;;;;;5028043;28;20021;-70
2022/01/11 07:41:40;;;;;;;62.13;29.42;;;1.70;94.30;;;;;;5027030;28;20128;-70
2022/01/11 07:44:06;;;;;;;67.53;33.08;;;1.70;94.20;;;;;;5027361;28;20500;-70
2022/01/11 07:46:33;;;;;;;68.70;31.58;;;1.70;94.20;;;;;;5018077;28;20048;-70
2022/01/11 07:48:59;;;;;;;58.47;29.95;;;1.70;94.20;;;;;;5023008;28;20052;-70
2022/01/11 07:51:26;;;;;;;56.65;28.95;;;1.70;94.30;;;;;;5018757;28;20049;-70
2022/01/11 07:53:52;;;;;;;56.53;27.40;;;1.70;94.50;;;;;;5022775;28;20029;-70
2022/01/11 07:56:19;;;;;;;70.55;30.67;;;1.70;95.00;;;;;;5020667;28;20507;-71
2022/01/11 07:58:45;;;;;;;62.40;30.67;;;1.70;94.10;;;;;;5026514;28;20021;-70
2022/01/11 08:01:10;;;;;;;68.57;32.92;;;1.60;94.10;;;;;;5024564;28;20369;-70
2022/01/11 08:03:36;;;;;;;65.45;30.65;;;1.60;94.20;;;;;;5026426;28;20036;-70
2022/01/11 08:06:02;;;;;;;56.72;28.15;;;1.70;95.00;;;;;;5029960;28;20016;-70
2022/01/11 08:08:28;;;;;;;59.85;28.95;;;1.70;94.50;;;;;;5029191;28;20017;-70
2022/01/11 08:10:55;;;;;;;58.42;29.35;;;1.70;94.20;;;;;;5027497;28;20552;-70
2022/01/11 08:13:24;;;;;;;58.53;31.63;;;1.80;94.10;;;;;;5023319;28;20060;-70
2022/01/11 08:15:51;;;;;;;63.40;34.35;;;1.70;94.00;;;;;;5027900;28;20036;-70
2022/01/11 08:18:16;;;;;;;77.68;31.67;;;1.70;94.10;;;;;;5022940;28;20018;-70
2022/01/11 08:20:43;;;;;;;60.08;29.27;;;1.70;94.20;;;;;;5030301;28;20017;-71
2022/01/11 08:23:10;;;;;;;62.88;31.23;;;1.70;94.20;;;;;;5030861;28;20025;-69
2022/01/11 08:25:36;;;;;;;58.42;27.80;;;1.70;94.20;;;;;;5030606;28;20403;-69
2022/01/11 08:28:02;;;;;;;52.75;28.33;;;1.70;94.20;;;;;;5031348;28;20029;-70
2022/01/11 08:30:27;;;;;;;51.55;26.80;;;1.70;94.30;;;;;;5030368;28;20021;-70
2022/01/11 08:32:53;;;;;;;55.63;28.02;;;1.80;94.50;;;;;;5030952;28;20026;-69
2022/01/11 08:35:20;;;;;;;52.05;26.40;;;1.80;94.50;;;;;;5030117;28;20156;-71
2022/01/11 08:37:45;;;;;;;45.63;26.27;;;1.90;94.90;;;;;;5030738;28;20748;-69
2022/01/11 08:40:12;;;;;;;36.78;21.17;;;2.10;95.10;;;;;;5030128;28;20037;-69
2022/01/11 08:42:38;;;;;;;38.50;23.20;;;2.40;95.30;;;;;;5024805;28;20163;-69
2022/01/11 08:45:04;;;;;;;35.88;21.65;;;2.80;95.50;;;;;;5029173;28;20040;-69
2022/01/11 08:47:34;;;;;;;29.75;18.23;;;3.10;94.90;;;;;;5029197;28;20083;-70
2022/01/11 08:50:02;;;;;;;28.70;17.58;;;3.60;94.50;;;;;;5029165;28;20109;-70
2022/01/11 08:52:28;;;;;;;28.95;18.35;;;4.10;94.20;;;;;;5013216;28;20112;-70
2022/01/11 08:54:55;;;;;;;29.98;17.75;;;4.50;92.60;;;;;;5010053;28;20076;-70
2022/01/11 08:57:21;;;;;;;27.02;17.73;;;4.70;91.00;;;;;;5010065;28;20109;-70
2022/01/11 08:59:47;;;;;;;29.27;20.08;;;4.70;90.00;;;;;;5010209;28;20018;-70
2022/01/11 09:02:14;;;;;;;27.77;18.45;;;4.60;89.00;;;;;;5028868;28;20036;-70
2022/01/11 09:04:40;;;;;;;30.67;18.30;;;4.50;88.50;;;;;;5028745;28;20040;-70
2022/01/11 09:07:06;;;;;;;31.92;18.58;;;4.50;89.10;;;;;;5027552;28;20033;-70
2022/01/11 09:09:32;;;;;;;28.95;19.83;;;4.50;89.10;;;;;;5029230;28;20755;-70
2022/01/11 09:11:58;;;;;;;30.13;17.50;;;4.60;88.50;;;;;;5029031;28;20021;-70
2022/01/11 09:14:25;;;;;;;32.60;18.00;;;4.60;88.20;;;;;;5028597;28;20112;-69
2022/01/11 09:16:51;;;;;;;25.75;17.17;;;4.60;88.90;;;;;;5028714;28;20040;-70
2022/01/11 09:19:20;;;;;;;27.40;17.27;;;4.70;89.30;;;;;;5030225;28;20033;-70
2022/01/11 09:21:47;;;;;;;27.77;17.35;;;4.90;89.10;;;;;;5031019;28;20029;-70
2022/01/11 09:24:19;;;;;;;25.75;16.90;;;5.20;88.60;;;;;;5029369;28;20487;-70
2022/01/11 09:26:46;;;;;;;24.55;16.92;;;5.40;88.10;;;;;;5030399;28;20025;-70
2022/01/11 09:29:11;;;;;;;24.60;15.68;;;5.60;87.30;;;;;;5030602;28;20030;-70
2022/01/11 09:31:37;;;;;;;24.45;14.65;;;5.80;87.00;;;;;;5030479;28;20035;-71
2022/01/11 09:34:03;;;;;;;26.15;15.07;;;6.10;86.70;;;;;;5030273;28;20029;-70
2022/01/11 09:36:29;;;;;;;24.75;15.85;;;6.30;84.50;;;;;;5029896;28;20037;-70
2022/01/11 09:38:55;;;;;;;25.05;16.45;;;6.40;83.70;;;;;;5030160;28;20029;-70
2022/01/11 09:41:21;;;;;;;26.08;16.90;;;6.40;82.10;;;;;;5030110;28;20675;-70
2022/01/11 09:43:46;;;;;;;26.85;16.85;;;6.40;81.00;;;;;;5030259;28;20044;-70
2022/01/11 09:46:12;;;;;;;26.00;15.80;;;6.40;81.30;;;;;;5031065;28;20036;-70
2022/01/11 09:48:38;;;;;;;29.35;17.77;;;6.30;80.20;;;;;;5032619;28;20056;-70
2022/01/11 09:51:04;;;;;;;23.17;15.43;;;6.10;79.70;;;;;;5031727;28;20029;-70
2022/01/11 09:53:30;;;;;;;29.33;17.33;;;5.90;79.50;;;;;;5033160;28;20033;-71
2022/01/11 09:55:56;;;;;;;30.45;18.50;;;5.70;80.70;;;;;;5031812;28;20102;-71
2022/01/11 09:58:22;;;;;;;30.23;19.25;;;5.50;81.20;;;;;;5032529;28;20029;-71
2022/01/11 10:00:49;;;;;;;28.25;17.00;;;5.40;81.30;;;;;;5032467;28;20032;-70
2022/01/11 10:03:15;;;;;;;28.17;16.58;;;5.20;82.40;;;;;;5030103;28;20364;-70
2022/01/11 10:05:40;;;;;;;32.58;18.45;;;5.10;82.60;;;;;;5029506;28;20026;-71
2022/01/11 10:08:27;;;;;;;31.30;18.25;;;5.00;83.50;;;;;;5029576;28;20036;-71
2022/01/11 10:10:54;;;;;;;27.15;18.15;;;4.80;83.90;;;;;;5029954;28;20021;-70
2022/01/11 10:13:30;;;;;;;28.88;18.10;;;4.70;84.50;;;;;;5029496;28;20381;-70
2022/01/11 10:15:56;;;;;;;30.98;19.00;;;4.60;85.20;;;;;;5029457;28;20440;-71
2022/01/11 10:18:35;;;;;;;32.05;19.13;;;4.60;86.00;;;;;;5028908;28;20108;-71
2022/01/11 10:21:54;;;;;;;33.15;19.40;;;4.40;86.50;;;;;;5031152;28;20021;-71
2022/01/11 10:24:20;;;;;;;30.42;18.73;;;4.40;86.80;;;;;;5023479;28;20037;-73
2022/01/11 10:26:46;;;;;;;34.65;19.67;;;4.40;87.30;;;;;;5027249;28;20030;-71
2022/01/11 10:29:29;;;;;;;32.60;17.95;;;4.30;87.40;;;;;;5012704;28;20036;-70
2022/01/11 10:31:56;;;;;;;31.15;18.88;;;4.30;87.80;;;;;;5022391;28;20112;-70
2022/01/11 10:34:34;;;;;;;37.72;20.83;;;4.20;88.40;;;;;;5032143;28;20033;-70
2022/01/11 10:37:02;;;;;;;41.28;21.00;;;4.20;88.90;;;;;;5033563;28;20398;-70
2022/01/11 10:39:40;;;;;;;39.47;20.48;;;4.30;89.10;;;;;;5033359;28;20022;-70
2022/01/11 10:42:21;;;;;;;40.00;21.30;;;4.30;89.60;;;;;;5028866;28;20128;-71
2022/01/11 10:44:52;;;;;;;36.25;21.55;;;4.30;90.00;;;;;;5028433;28;20491;-71
2022/01/11 10:47:24;;;;;;;30.90;18.02;;;4.40;90.10;;;;;;5027580;28;20021;-70
2022/01/11 10:50:00;;;;;;;32.50;19.70;;;4.40;90.20;;;;;;5028371;28;20025;-71
2022/01/11 10:52:31;;;;;;;34.35;18.40;;;4.40;90.00;;;;;;5028915;28;20048;-70
2022/01/11 10:54:58;;;;;;;39.25;21.30;;;4.50;89.80;;;;;;5027875;28;20332;-70
2022/01/11 10:57:31;;;;;;;33.70;18.75;;;4.50;90.10;;;;;;5044057;28;20045;-70
2022/01/11 11:00:03;;;;;;;36.80;18.92;;;4.50;90.10;;;;;;5009419;28;20041;-71
2022/01/11 11:02:30;;;;;;;35.58;18.95;;;4.60;89.80;;;;;;5008512;28;20033;-70
2022/01/11 11:04:58;;;;;;;34.97;17.70;;;4.60;89.90;;;;;;5008876;28;20053;-71
2022/01/11 11:07:26;;;;;;;31.73;18.00;;;4.60;90.00;;;;;;5008770;28;20022;-71
2022/01/11 11:09:52;;;;;;;35.70;19.42;;;4.70;90.00;;;;;;5009049;28;20388;-70
2022/01/11 11:12:23;;;;;;;34.22;18.77;;;4.80;90.30;;;;;;5011094;28;20022;-70
2022/01/11 11:14:49;;;;;;;29.58;17.75;;;4.90;90.60;;;;;;5026321;28;20385;-71
2022/01/11 11:17:47;;;;;;;33.05;19.20;;;4.90;90.10;;;;;;5028418;28;20096;-70
2022/01/11 11:20:13;;;;;;;36.25;19.17;;;5.00;89.80;;;;;;5015849;28;20056;-71
2022/01/11 11:22:41;;;;;;;38.10;19.35;;;5.10;89.70;;;;;;5028150;28;20508;-71
2022/01/11 11:25:07;;;;;;;36.85;19.73;;;5.20;89.50;;;;;;5028460;28;20026;-70
2022/01/11 11:27:33;;;;;;;36.15;19.65;;;5.30;88.80;;;;;;5027475;28;20080;-71
2022/01/11 11:29:59;;;;;;;31.88;17.95;;;5.40;89.20;;;;;;5027476;28;20029;-70
2022/01/11 11:32:25;;;;;;;31.10;18.27;;;5.50;89.60;;;;;;5027741;28;20149;-71
2022/01/11 11:34:53;;;;;;;33.35;18.73;;;5.60;89.00;;;;;;5027688;28;20033;-70
2022/01/11 11:37:27;;;;;;;31.75;17.35;;;5.70;88.20;;;;;;5026968;28;20115;-71
2022/01/11 11:39:58;;;;;;;35.42;18.02;;;5.80;89.00;;;;;;5027386;28;20057;-71
2022/01/11 11:42:25;;;;;;;32.22;18.58;;;6.00;88.30;;;;;;5027653;28;20033;-71
2022/01/11 11:44:51;;;;;;;31.10;17.92;;;6.10;87.30;;;;;;5027855;28;20029;-70
2022/01/11 11:47:30;;;;;;;28.45;17.60;;;6.20;87.00;;;;;;5027850;28;20025;-70
2022/01/11 11:49:58;;;;;;;30.90;17.52;;;6.30;86.70;;;;;;5027487;28;20045;-70
2022/01/11 11:52:23;;;;;;;32.33;19.02;;;6.30;85.10;;;;;;5021613;28;20411;-70
2022/01/11 11:54:55;;;;;;;32.97;16.92;;;6.40;84.90;;;;;;5024634;28;20038;-71
2022/01/11 11:57:23;;;;;;;31.35;17.08;;;6.40;84.80;;;;;;5007915;28;20774;-71
2022/01/11 12:00:08;;;;;;;31.10;17.42;;;6.50;84.60;;;;;;5022991;28;20025;-71
2022/01/11 12:02:40;;;;;;;34.63;16.83;;;6.50;86.30;;;;;;5026003;28;20076;-71
2022/01/11 12:05:11;;;;;;;33.55;18.55;;;6.50;86.40;;;;;;5027625;28;20412;-71
2022/01/11 12:07:42;;;;;;;33.15;16.80;;;6.40;82.90;;;;;;5027722;28;20029;-71
2022/01/11 12:10:19;;;;;;;29.73;15.80;;;6.40;82.00;;;;;;5027152;28;20407;-71
2022/01/11 12:12:54;;;;;;;25.10;14.73;;;6.30;83.20;;;;;;5021685;28;20072;-71
2022/01/11 12:15:31;;;;;;;27.95;14.48;;;6.30;87.40;;;;;;5027598;28;20037;-71
2022/01/11 12:17:57;;;;;;;30.38;15.23;;;6.40;90.00;;;;;;5026871;28;20072;-71
2022/01/11 12:20:44;;;;;;;27.95;15.90;;;6.40;84.20;;;;;;5027407;28;20030;-70
2022/01/11 12:23:11;;;;;;;24.48;15.23;;;6.40;83.90;;;;;;5027081;28;20018;-71
2022/01/11 12:25:43;;;;;;;29.25;16.40;;;6.40;86.40;;;;;;5028026;28;20108;-71
2022/01/11 12:28:18;;;;;;;29.98;15.95;;;6.30;81.40;;;;;;5028176;28;20034;-72
2022/01/11 12:30:44;;;;;;;28.92;16.33;;;6.30;83.60;;;;;;5027734;28;20549;-72
2022/01/11 12:33:11;;;;;;;28.13;16.02;;;6.30;82.40;;;;;;5022798;28;20563;-72
2022/01/11 12:36:00;;;;;;;27.90;16.08;;;6.30;81.80;;;;;;5018788;28;20030;-71
2022/01/11 12:38:28;;;;;;;28.65;14.70;;;6.20;81.40;;;;;;5021684;28;20017;-71
2022/01/11 12:40:54;;;;;;;34.17;16.80;;;6.20;83.20;;;;;;5027437;28;20021;-71